createdAt,value
2022-12-09T00:00:13.981Z,-1.46
2022-12-09T00:01:19.968Z,-1.65
2022-12-09T00:02:22.215Z,-1.54
2022-12-09T00:03:24.797Z,-1.47
2022-12-09T00:04:27.250Z,-1.44
2022-12-09T00:05:30.498Z,-1.41
2022-12-09T00:07:03.687Z,-1.67
2022-12-09T00:08:05.943Z,-1.50
2022-12-09T00:09:12.079Z,-1.45
2022-12-09T00:10:14.707Z,-1.54
2022-12-09T00:11:18.100Z,-1.44
2022-12-09T00:12:20.775Z,-1.44
2022-12-09T00:13:23.145Z,-1.44
2022-12-09T00:14:25.154Z,-1.48
2022-12-09T00:15:27.296Z,-1.48
2022-12-09T00:16:30.256Z,-1.44
2022-12-09T00:17:33.359Z,-1.44
2022-12-09T00:18:35.894Z,-1.43
2022-12-09T00:19:37.811Z,-1.39
2022-12-09T00:20:39.815Z,-1.35
2022-12-09T00:21:41.828Z,-1.31
2022-12-09T00:22:43.999Z,-1.31
2022-12-09T00:23:48.283Z,-1.35
2022-12-09T00:24:50.330Z,-1.38
2022-12-09T00:25:56.028Z,-1.35
2022-12-09T00:26:58.353Z,-1.33
2022-12-09T00:28:00.262Z,-1.30
2022-12-09T00:29:02.775Z,-1.33
2022-12-09T00:30:07.084Z,-1.33
2022-12-09T00:31:17.424Z,-1.30
2022-12-09T00:32:19.639Z,-1.31
2022-12-09T00:33:21.777Z,-1.47
2022-12-09T00:34:25.632Z,-1.36
2022-12-09T00:35:28.010Z,-1.34
2022-12-09T00:36:31.357Z,-1.30
2022-12-09T00:37:33.413Z,-1.36
2022-12-09T00:38:36.262Z,-1.32
2022-12-09T00:39:38.480Z,-1.35
2022-12-09T00:40:42.279Z,-1.43
2022-12-09T00:41:44.674Z,-1.42
2022-12-09T00:42:46.678Z,-1.37
2022-12-09T00:43:48.910Z,-1.35
2022-12-09T00:44:51.112Z,-1.40
2022-12-09T00:45:53.516Z,-1.40
2022-12-09T00:46:56.113Z,-1.38
2022-12-09T00:47:58.430Z,-1.42
2022-12-09T00:49:00.724Z,-1.43
2022-12-09T00:50:05.068Z,-1.44
2022-12-09T00:51:11.444Z,-1.43
2022-12-09T00:52:13.609Z,-1.47
2022-12-09T00:53:15.693Z,-1.48
2022-12-09T00:54:17.662Z,-1.42
2022-12-09T00:55:19.876Z,-1.43
2022-12-09T00:56:25.971Z,-1.38
2022-12-09T00:57:27.975Z,-1.38
2022-12-09T00:58:30.204Z,-1.36
2022-12-09T00:59:32.779Z,-1.38
2022-12-09T01:00:35.325Z,-1.41
2022-12-09T01:01:37.513Z,-1.42
2022-12-09T01:02:40.027Z,-1.54
2022-12-09T01:03:42.355Z,-1.80
2022-12-09T01:04:44.711Z,-1.67
2022-12-09T01:05:49.369Z,-1.62
2022-12-09T01:06:51.951Z,-1.76
2022-12-09T01:07:54.054Z,-1.72
2022-12-09T01:08:56.160Z,-1.65
2022-12-09T01:09:58.339Z,-1.60
2022-12-09T01:11:00.620Z,-1.57
2022-12-09T01:12:04.046Z,-1.54
2022-12-09T01:13:07.262Z,-1.55
2022-12-09T01:14:11.229Z,-1.52
2022-12-09T01:15:14.033Z,-1.81
2022-12-09T01:16:19.247Z,-1.77
2022-12-09T01:17:21.421Z,-1.62
2022-12-09T01:18:23.911Z,-1.59
2022-12-09T01:19:26.083Z,-1.55
2022-12-09T01:20:50.618Z,-1.52
2022-12-09T01:21:52.978Z,-1.70
2022-12-09T01:22:55.559Z,-1.59
2022-12-09T01:23:58.169Z,-1.58
2022-12-09T01:25:00.841Z,-1.52
2022-12-09T01:26:05.059Z,-1.51
2022-12-09T01:27:07.184Z,-1.48
2022-12-09T01:28:09.135Z,-1.48
2022-12-09T01:29:11.067Z,-1.48
2022-12-09T01:30:14.073Z,-1.43
2022-12-09T01:31:19.614Z,-1.45
2022-12-09T01:32:22.824Z,-1.46
2022-12-09T01:33:25.300Z,-1.54
2022-12-09T01:34:27.470Z,-1.54
2022-12-09T01:35:29.567Z,-1.50
2022-12-09T01:36:32.578Z,-1.50
2022-12-09T01:37:36.713Z,-1.50
2022-12-09T01:38:38.969Z,-1.51
2022-12-09T01:39:41.018Z,-1.53
2022-12-09T01:40:47.047Z,-1.47
2022-12-09T01:41:49.250Z,-1.50
2022-12-09T01:42:51.558Z,-1.48
2022-12-09T01:44:17.248Z,-1.45
2022-12-09T01:45:22.922Z,-1.44
2022-12-09T01:46:25.398Z,-1.43
2022-12-09T01:47:27.836Z,-1.42
2022-12-09T01:48:33.766Z,-1.44
2022-12-09T01:49:41.377Z,-1.48
2022-12-09T01:50:52.989Z,-1.44
2022-12-09T01:51:59.774Z,-1.42
2022-12-09T01:53:02.217Z,-1.39
2022-12-09T01:54:05.003Z,-1.37
2022-12-09T01:55:09.648Z,-1.44
2022-12-09T01:57:25.182Z,-1.37
2022-12-09T01:58:29.083Z,-1.54
2022-12-09T01:59:31.492Z,-1.55
2022-12-09T02:00:34.711Z,-1.51
2022-12-09T02:01:38.087Z,-1.52
2022-12-09T02:02:44.568Z,-1.55
2022-12-09T02:03:47.660Z,-1.59
2022-12-09T02:04:51.767Z,-1.58
2022-12-09T02:05:54.602Z,-1.55
2022-12-09T02:07:01.608Z,-1.54
2022-12-09T02:08:07.096Z,-1.54
2022-12-09T02:09:11.145Z,-1.54
2022-12-09T02:10:16.223Z,-1.54
2022-12-09T02:11:27.834Z,-1.57
2022-12-09T02:12:42.734Z,-1.58
2022-12-09T02:14:07.057Z,-1.56
2022-12-09T02:15:19.152Z,-1.55
2022-12-09T02:16:24.302Z,-1.56
2022-12-09T06:45:42.264Z,-2.28
2022-12-09T06:46:45.069Z,-2.41
2022-12-09T06:47:47.762Z,-2.41
2022-12-09T06:48:52.052Z,-2.37
2022-12-09T06:50:04.527Z,-2.36
2022-12-09T06:51:05.686Z,-2.35
2022-12-09T06:52:09.795Z,-2.29
2022-12-09T06:53:11.921Z,-2.29
2022-12-09T06:54:14.125Z,-2.25
2022-12-09T06:55:16.882Z,-2.24
2022-12-09T06:56:19.718Z,-2.24
2022-12-09T06:57:22.842Z,-2.24
2022-12-09T06:58:25.489Z,-2.25
2022-12-09T06:59:27.658Z,-2.22
2022-12-09T07:00:30.252Z,-2.20
2022-12-09T07:01:33.660Z,-2.21
2022-12-09T07:02:37.011Z,-2.21
2022-12-09T07:03:41.128Z,-2.12
2022-12-09T07:04:43.645Z,-2.11
2022-12-09T07:05:47.057Z,-2.06
2022-12-09T07:06:49.792Z,-2.05
2022-12-09T07:07:53.196Z,-2.05
2022-12-09T07:08:58.296Z,-2.05
2022-12-09T07:10:07.274Z,-2.02
2022-12-09T07:11:10.297Z,-1.96
2022-12-09T07:12:12.954Z,-1.95
2022-12-09T07:13:15.100Z,-1.89
2022-12-09T07:14:18.624Z,-1.90
2022-12-09T07:15:21.689Z,-1.82
2022-12-09T07:16:24.199Z,-1.89
2022-12-09T07:17:27.082Z,-1.87
2022-12-09T07:18:30.035Z,-1.86
2022-12-09T07:19:32.541Z,-1.87
2022-12-09T07:20:35.133Z,-1.84
2022-12-09T07:21:37.752Z,-1.84
2022-12-09T07:22:40.261Z,-1.81
2022-12-09T07:23:42.893Z,-1.79
2022-12-09T07:24:45.909Z,-1.81
2022-12-09T07:25:57.225Z,-1.84
2022-12-09T07:27:04.709Z,-1.79
2022-12-09T07:28:03.795Z,-1.80
2022-12-09T07:29:07.286Z,-1.78
2022-12-09T07:30:11.645Z,-1.76
2022-12-09T07:32:30.655Z,-1.64
2022-12-09T07:33:34.405Z,-1.70
2022-12-09T07:34:38.017Z,-1.69
2022-12-09T07:35:40.753Z,-1.61
2022-12-09T07:36:43.374Z,-1.59
2022-12-09T07:37:45.780Z,-1.58
2022-12-09T07:38:49.040Z,-1.62
2022-12-09T07:39:51.427Z,-1.58
2022-12-09T07:40:53.645Z,-1.57
2022-12-09T07:41:57.227Z,-1.55
2022-12-09T07:43:00.088Z,-1.55
2022-12-09T07:44:03.485Z,-1.52
2022-12-09T07:45:07.907Z,-1.48
2022-12-09T07:46:11.593Z,-1.50
2022-12-09T07:47:14.173Z,-1.48
2022-12-09T07:48:16.882Z,-1.49
2022-12-09T07:49:19.496Z,-1.47
2022-12-09T07:50:22.806Z,-1.39
2022-12-09T07:51:25.157Z,-1.42
2022-12-09T07:52:27.723Z,-1.38
2022-12-09T07:53:31.480Z,-1.34
2022-12-09T07:54:33.816Z,-1.33
2022-12-09T07:55:36.247Z,-1.23
2022-12-09T07:56:39.098Z,-1.26
2022-12-09T07:57:41.234Z,-1.25
2022-12-09T07:58:45.846Z,-1.19
2022-12-09T07:59:48.191Z,-1.14
2022-12-09T08:00:51.507Z,-1.21
2022-12-09T08:01:54.261Z,-1.20
2022-12-09T08:02:56.839Z,-1.16
2022-12-09T08:03:59.404Z,-1.10
2022-12-09T08:05:03.536Z,-0.98
2022-12-09T08:06:07.478Z,-1.01
2022-12-09T08:07:10.050Z,-1.03
2022-12-09T08:08:13.626Z,-1.05
2022-12-09T08:09:15.970Z,-0.95
2022-12-09T08:10:19.233Z,-0.96
2022-12-09T08:11:27.625Z,-0.90
2022-12-09T08:12:30.195Z,-0.93
2022-12-09T08:13:32.376Z,-0.94
2022-12-09T08:14:35.394Z,-0.91
2022-12-09T08:15:38.257Z,-0.82
2022-12-09T08:16:43.085Z,-0.84
2022-12-09T08:17:46.301Z,-0.78
2022-12-09T08:18:49.754Z,-0.78
2022-12-09T08:19:53.025Z,-0.71
2022-12-09T08:20:55.431Z,-0.66
2022-12-09T08:21:57.562Z,-0.67
2022-12-09T08:22:59.977Z,-0.66
2022-12-09T08:24:04.215Z,-0.80
2022-12-09T08:25:08.192Z,-0.82
2022-12-09T08:26:12.235Z,-0.71
2022-12-09T08:27:15.495Z,-0.58
2022-12-09T08:28:17.926Z,-0.62
2022-12-09T08:29:21.499Z,-0.72
2022-12-09T08:30:24.292Z,-0.64
2022-12-09T08:31:27.646Z,-0.65
2022-12-09T08:32:30.579Z,-0.53
2022-12-09T08:33:33.531Z,-0.58
2022-12-09T08:34:35.838Z,-0.52
2022-12-09T08:35:42.433Z,-0.43
2022-12-09T08:36:47.737Z,-0.45
2022-12-09T08:37:50.265Z,-0.47
2022-12-09T08:38:53.166Z,-0.74
2022-12-09T08:39:55.956Z,-0.94
2022-12-09T08:41:01.266Z,-0.86
2022-12-09T08:42:03.752Z,-0.95
2022-12-09T08:43:08.292Z,-0.83
2022-12-09T08:44:14.453Z,-0.85
2022-12-09T08:45:16.999Z,-0.80
2022-12-09T08:46:19.541Z,-0.59
2022-12-09T08:47:22.206Z,-0.52
2022-12-09T08:48:24.658Z,-0.47
2022-12-09T08:49:27.437Z,-0.42
2022-12-09T08:50:30.335Z,-0.39
2022-12-09T08:51:33.450Z,-0.31
2022-12-09T08:52:40.511Z,-0.28
2022-12-09T08:53:39.946Z,-0.23
2022-12-09T08:54:42.475Z,-0.15
2022-12-09T08:55:44.863Z,-0.19
2022-12-09T08:56:50.058Z,-0.39
2022-12-09T08:57:52.611Z,-0.35
2022-12-09T08:58:55.700Z,-0.36
2022-12-09T08:59:58.480Z,-0.26
2022-12-09T09:01:01.498Z,-0.26
2022-12-09T09:02:04.037Z,-0.38
2022-12-09T09:03:06.853Z,-0.32
2022-12-09T09:04:12.450Z,-0.27
2022-12-09T09:05:14.830Z,-0.26
2022-12-09T09:06:19.202Z,-0.18
2022-12-09T09:07:21.958Z,-0.18
2022-12-09T09:08:24.366Z,-0.24
2022-12-09T09:09:26.843Z,-0.21
2022-12-09T09:10:29.513Z,-0.21
2022-12-09T09:11:33.236Z,-0.19
2022-12-09T09:12:42.019Z,-0.14
2022-12-09T09:13:40.843Z,-0.19
2022-12-09T09:14:43.405Z,-0.17
2022-12-09T09:15:45.629Z,-0.22
2022-12-09T09:16:48.224Z,-0.18
2022-12-09T09:17:52.434Z,-0.16
2022-12-09T09:18:55.390Z,-0.19
2022-12-09T09:19:57.789Z,-0.15
2022-12-09T09:21:01.928Z,-0.20
2022-12-09T09:22:04.390Z,-0.12
2022-12-09T09:23:06.808Z,-0.16
2022-12-09T09:24:15.599Z,-0.14
2022-12-09T09:25:19.106Z,-0.17
2022-12-09T09:26:25.335Z,-0.22
2022-12-09T09:27:27.699Z,-0.14
2022-12-09T09:28:31.859Z,-0.15
2022-12-09T09:29:37.015Z,-0.15
2022-12-09T09:30:39.332Z,-0.13
2022-12-09T09:31:42.563Z,-0.13
2022-12-09T09:32:45.634Z,-0.19
2022-12-09T09:33:49.050Z,-0.15
2022-12-09T09:34:52.284Z,-0.09
2022-12-09T09:35:59.284Z,-0.03
2022-12-09T09:37:02.354Z,0.04
2022-12-09T09:38:04.441Z,-0.01
2022-12-09T09:39:06.946Z,-0.01
2022-12-09T09:40:13.297Z,0.01
2022-12-09T09:41:26.330Z,0.02
2022-12-09T09:42:32.131Z,0.02
2022-12-09T09:43:38.341Z,0.06
2022-12-09T09:44:46.258Z,0.13
2022-12-09T09:45:49.858Z,0.12
2022-12-09T09:46:55.557Z,0.15
2022-12-09T09:48:04.671Z,0.15
2022-12-09T09:49:13.351Z,0.21
2022-12-09T09:50:23.152Z,0.26
2022-12-09T09:51:26.705Z,0.25
2022-12-09T09:52:30.400Z,0.23
2022-12-09T09:53:35.005Z,0.27
2022-12-09T09:54:37.839Z,0.30
2022-12-09T09:55:49.672Z,0.29
2022-12-09T09:57:07.821Z,0.31
2022-12-09T09:58:13.807Z,0.31
2022-12-09T09:59:29.407Z,0.31
2022-12-09T10:00:51.017Z,0.33
2022-12-09T10:02:12.659Z,0.34
2022-12-09T10:03:19.833Z,0.35
2022-12-09T10:04:35.845Z,0.34
2022-12-09T10:05:45.270Z,0.39
2022-12-09T10:07:07.468Z,0.45
2022-12-09T10:08:28.001Z,0.49
2022-12-09T14:28:52.256Z,-0.60
2022-12-09T14:29:57.251Z,-0.71
2022-12-09T14:31:06.526Z,-0.69
2022-12-09T14:32:04.504Z,-0.69
2022-12-09T14:33:38.483Z,-0.68
2022-12-09T14:34:42.694Z,-0.66
2022-12-09T14:35:48.467Z,-0.66
2022-12-09T14:36:54.871Z,-0.66
2022-12-09T14:38:17.278Z,-0.61
2022-12-09T14:39:25.937Z,-0.57
2022-12-09T14:40:47.350Z,-0.56
2022-12-09T14:41:56.520Z,-0.59
2022-12-09T14:43:26.623Z,-0.54
2022-12-09T14:44:40.948Z,-0.50
2022-12-09T14:46:04.831Z,-0.52
2022-12-09T14:47:13.674Z,-0.55
2022-12-09T14:48:19.136Z,-0.50
2022-12-09T14:49:27.760Z,-0.45
2022-12-09T14:50:29.760Z,-0.45
2022-12-09T14:51:37.969Z,-0.45
2022-12-09T14:52:52.693Z,-0.44
2022-12-09T14:53:58.456Z,-0.43
2022-12-09T14:55:09.941Z,-0.39
2022-12-09T14:57:32.143Z,-0.25
2022-12-09T14:58:34.534Z,-0.37
2022-12-09T14:59:36.407Z,-0.35
2022-12-09T15:00:40.446Z,-0.32
2022-12-09T15:01:57.666Z,-0.30
2022-12-09T15:04:05.487Z,-0.29
2022-12-09T15:05:13.110Z,-0.29
2022-12-09T15:06:18.197Z,-0.21
2022-12-09T15:07:23.186Z,-0.22
2022-12-09T15:08:37.091Z,-0.22
2022-12-09T15:09:57.495Z,-0.22
2022-12-09T15:11:03.280Z,-0.19
2022-12-09T15:12:10.446Z,-0.23
2022-12-09T15:13:16.113Z,-0.18
2022-12-09T15:14:18.501Z,-0.16
2022-12-09T15:15:26.819Z,-0.12
2022-12-09T15:16:29.678Z,-0.08
2022-12-09T15:17:41.416Z,-0.06
2022-12-09T15:18:44.844Z,0.01
2022-12-09T15:20:02.304Z,0.06
2022-12-09T15:22:09.160Z,0.17
2022-12-09T15:23:20.692Z,0.04
2022-12-09T15:24:25.284Z,0.06
2022-12-09T15:25:28.452Z,0.08
2022-12-09T15:26:33.345Z,0.09
2022-12-09T15:27:35.420Z,0.16
2022-12-09T15:28:37.511Z,0.13
2022-12-09T15:29:39.413Z,0.07
2022-12-09T15:30:42.130Z,0.11
2022-12-09T15:31:49.899Z,0.11
2022-12-09T15:32:51.945Z,0.10
2022-12-09T15:33:57.577Z,0.13
2022-12-09T15:35:21.671Z,0.12
2022-12-09T15:36:39.383Z,0.18
2022-12-09T15:37:42.045Z,0.18
2022-12-09T15:38:53.106Z,0.18
2022-12-09T15:40:02.008Z,0.17
2022-12-09T15:41:07.534Z,0.23
2022-12-09T15:42:13.139Z,0.19
2022-12-09T15:43:15.028Z,0.20
2022-12-09T15:44:20.700Z,0.19
2022-12-09T15:45:25.810Z,0.19
2022-12-09T15:46:31.040Z,0.21
2022-12-09T15:47:39.557Z,0.22
2022-12-09T15:48:45.372Z,0.22
2022-12-09T15:50:12.061Z,0.25
2022-12-09T15:51:17.767Z,0.25
2022-12-09T15:52:23.415Z,0.26
2022-12-09T15:53:38.234Z,0.27
2022-12-09T15:54:43.618Z,0.25
2022-12-09T15:55:48.840Z,0.26
2022-12-09T15:56:55.914Z,0.25
2022-12-09T15:58:00.081Z,0.26
2022-12-09T15:59:11.057Z,0.31
2022-12-09T16:00:14.121Z,0.30
2022-12-09T16:01:23.004Z,0.30
2022-12-09T16:02:28.383Z,0.31
2022-12-09T16:03:34.709Z,0.29
2022-12-09T16:04:40.383Z,0.28
2022-12-09T16:05:45.814Z,0.30
2022-12-09T16:06:49.079Z,0.31
2022-12-09T16:07:57.232Z,0.31
2022-12-09T16:09:01.817Z,0.32
2022-12-09T16:10:17.567Z,0.31
2022-12-09T16:11:40.398Z,0.31
2022-12-09T16:12:43.503Z,0.31
2022-12-09T16:14:00.695Z,0.31
2022-12-09T16:15:05.837Z,0.30
2022-12-09T16:16:27.593Z,0.35
2022-12-09T16:17:33.881Z,0.37
2022-12-09T16:18:47.621Z,0.34
2022-12-09T16:19:50.045Z,0.40
2022-12-09T16:22:28.365Z,0.46
2022-12-09T16:23:32.095Z,0.32
2022-12-09T16:24:58.014Z,0.27
2022-12-09T16:25:43.546Z,0.27
2022-12-09T16:26:48.901Z,0.33
2022-12-09T16:29:05.887Z,0.45
2022-12-09T16:30:14.955Z,0.29
2022-12-09T16:31:17.679Z,0.34
2022-12-09T16:32:28.869Z,0.36
2022-12-09T16:33:34.567Z,0.39
2022-12-09T16:34:37.024Z,0.39
2022-12-09T16:35:44.132Z,0.37
2022-12-09T16:36:54.684Z,0.40
2022-12-09T16:38:00.343Z,0.41
2022-12-09T16:39:12.269Z,0.42
2022-12-09T16:40:30.393Z,0.42
2022-12-09T16:41:54.288Z,0.34
2022-12-09T16:43:18.529Z,0.36
2022-12-09T16:44:33.221Z,0.36
2022-12-09T16:45:37.052Z,0.38
2022-12-09T16:46:43.197Z,0.36
2022-12-09T16:47:47.605Z,0.34
2022-12-09T16:48:49.618Z,0.36
2022-12-09T16:49:52.070Z,0.40
2022-12-09T16:51:12.788Z,0.34
2022-12-09T16:52:21.472Z,0.35
2022-12-09T16:53:27.231Z,0.35
2022-12-09T16:54:29.285Z,0.28
2022-12-09T16:55:31.864Z,0.32
2022-12-09T16:56:33.947Z,0.30
2022-12-09T16:58:25.629Z,0.34
2022-12-09T16:59:36.064Z,0.31
2022-12-09T17:00:31.558Z,0.25
2022-12-09T17:01:37.173Z,0.28
2022-12-09T17:02:42.588Z,0.30
2022-12-09T17:03:51.064Z,0.37
2022-12-09T17:04:53.070Z,0.26
2022-12-09T17:05:55.072Z,0.15
2022-12-09T17:06:57.166Z,0.21
2022-12-09T17:08:00.056Z,0.28
2022-12-09T17:09:02.119Z,0.24
2022-12-09T17:10:05.362Z,0.15
2022-12-09T17:11:07.392Z,0.24
2022-12-09T17:12:09.364Z,0.26
2022-12-09T17:13:12.260Z,0.27
2022-12-09T17:14:14.494Z,0.28
2022-12-09T17:15:19.528Z,0.29
2022-12-09T17:16:22.546Z,0.32
2022-12-09T17:17:24.559Z,0.30
2022-12-09T17:18:28.176Z,0.33
2022-12-09T17:19:31.176Z,0.32
2022-12-09T17:20:33.262Z,0.34
2022-12-09T17:21:35.244Z,0.35
2022-12-09T17:22:37.521Z,0.37
2022-12-09T17:23:40.700Z,0.38
2022-12-09T17:24:42.579Z,0.41
2022-12-09T17:25:44.440Z,0.41
2022-12-09T17:26:46.514Z,0.42
2022-12-09T17:27:49.112Z,0.39
2022-12-09T17:28:51.186Z,0.40
2022-12-09T17:29:53.192Z,0.41
2022-12-09T17:30:55.635Z,0.43
2022-12-09T17:31:58.137Z,0.45
2022-12-09T17:33:00.235Z,0.46
2022-12-09T17:34:02.088Z,0.47
2022-12-09T17:35:10.612Z,0.43
2022-12-09T17:36:11.829Z,0.43
2022-12-09T17:37:13.744Z,0.45
2022-12-09T17:38:16.316Z,0.42
2022-12-09T17:39:18.181Z,0.42
2022-12-09T17:40:20.264Z,0.42
2022-12-09T17:41:22.119Z,0.44
2022-12-09T17:42:23.981Z,0.46
2022-12-09T17:43:25.865Z,0.44
2022-12-09T17:44:27.720Z,0.46
2022-12-09T17:45:29.646Z,0.45
2022-12-09T17:46:32.476Z,0.45
2022-12-09T17:47:34.566Z,0.45
2022-12-09T17:48:37.155Z,0.44
2022-12-09T17:49:39.021Z,0.42
2022-12-09T17:50:41.195Z,0.44
2022-12-09T17:51:43.667Z,0.44
2022-12-09T17:52:45.652Z,0.43
2022-12-09T17:53:48.250Z,0.43
2022-12-09T17:54:50.419Z,0.43
2022-12-09T17:55:52.286Z,0.45
2022-12-09T17:58:02.537Z,0.42
2022-12-09T18:00:18.566Z,0.50
2022-12-09T18:01:22.471Z,0.42
2022-12-09T18:02:24.553Z,0.42
2022-12-09T18:03:54.178Z,0.39
2022-12-09T18:04:32.063Z,0.38
2022-12-09T18:05:37.783Z,0.38
2022-12-09T20:49:39.428Z,-0.62
2022-12-09T20:50:41.460Z,-0.69
2022-12-09T20:51:43.326Z,-0.67
2022-12-09T20:52:45.206Z,-0.67
2022-12-09T20:53:48.089Z,-0.63
2022-12-09T20:54:50.643Z,-0.61
2022-12-09T20:55:56.529Z,-0.58
2022-12-09T20:56:59.874Z,-0.55
2022-12-09T20:58:02.136Z,-0.52
2022-12-09T20:59:06.752Z,-0.47
2022-12-09T21:00:13.371Z,-0.44
2022-12-09T21:01:18.603Z,-0.42
2022-12-09T21:02:22.569Z,-0.40
2022-12-09T21:03:24.518Z,-0.38
2022-12-09T21:04:26.781Z,-0.40
2022-12-09T21:05:29.341Z,-0.32
2022-12-09T21:06:39.389Z,-0.28
2022-12-09T21:07:41.525Z,-0.29
2022-12-09T21:08:44.341Z,-0.28
2022-12-09T21:09:46.214Z,-0.27
2022-12-09T21:10:48.412Z,-0.26
2022-12-09T21:11:50.694Z,-0.27
2022-12-09T21:12:53.197Z,-0.26
2022-12-09T21:14:00.461Z,-0.23
2022-12-09T21:15:03.422Z,-0.24
2022-12-09T21:16:08.886Z,-0.25
2022-12-09T21:17:11.956Z,-0.22
2022-12-09T21:18:13.850Z,-0.23
2022-12-09T21:19:20.486Z,-0.20
2022-12-09T21:20:22.906Z,-0.15
2022-12-09T21:21:27.862Z,-0.12
2022-12-09T21:22:29.831Z,-0.10
2022-12-09T21:23:34.710Z,-0.13
2022-12-09T21:24:37.132Z,-0.12
2022-12-09T21:25:39.175Z,-0.11
2022-12-09T21:26:41.334Z,-0.11
2022-12-09T21:27:43.228Z,-0.07
2022-12-09T21:28:48.462Z,-0.07
2022-12-09T21:29:50.358Z,-0.07
2022-12-09T21:30:52.469Z,-0.07
2022-12-09T21:31:54.706Z,-0.08
2022-12-09T21:32:57.151Z,0.00
2022-12-09T21:34:01.376Z,-0.02
2022-12-09T21:35:03.880Z,0.05
2022-12-09T21:36:09.778Z,0.08
2022-12-09T21:37:13.259Z,0.08
2022-12-09T21:38:17.121Z,0.12
2022-12-09T21:39:19.314Z,0.05
2022-12-09T21:40:21.291Z,0.09
2022-12-09T21:41:26.226Z,0.14
2022-12-09T21:42:28.140Z,0.18
2022-12-09T21:43:32.008Z,0.21
2022-12-09T21:44:36.192Z,0.22
2022-12-09T21:45:38.320Z,0.20
2022-12-09T21:46:40.590Z,0.20
2022-12-09T21:47:44.562Z,0.23
2022-12-09T21:48:51.807Z,0.24
2022-12-09T21:49:52.016Z,0.23
2022-12-09T21:50:56.553Z,0.18
2022-12-09T21:51:59.661Z,0.22
2022-12-09T21:53:02.126Z,0.19
2022-12-09T21:54:05.389Z,0.25
2022-12-09T21:55:08.938Z,0.22
2022-12-09T21:56:15.191Z,0.25
2022-12-09T21:57:17.145Z,0.23
2022-12-09T21:58:19.183Z,0.27
2022-12-09T21:59:21.054Z,0.27
2022-12-09T22:00:22.999Z,0.29
2022-12-09T22:01:30.669Z,0.27
2022-12-09T22:02:32.783Z,0.29
2022-12-09T22:03:34.913Z,0.30
2022-12-09T22:04:36.780Z,0.25
2022-12-09T22:05:38.740Z,0.34
2022-12-09T22:06:46.426Z,0.28
2022-12-09T22:07:49.279Z,0.29
2022-12-09T22:08:51.534Z,0.29
2022-12-09T22:09:53.449Z,0.28
2022-12-09T22:10:55.683Z,0.34
2022-12-09T22:11:57.562Z,0.29
2022-12-09T22:12:59.422Z,0.28
2022-12-09T22:14:02.561Z,0.31
2022-12-09T22:15:05.649Z,0.29
2022-12-09T22:17:20.958Z,0.45
2022-12-09T22:18:22.916Z,0.33
2022-12-09T22:19:24.764Z,0.30
2022-12-09T22:21:07.830Z,0.31
2022-12-09T22:21:32.211Z,0.28
2022-12-09T22:22:35.975Z,0.32
2022-12-09T22:23:40.403Z,0.27
2022-12-09T22:24:42.290Z,0.29
2022-12-09T22:25:44.149Z,0.27
2022-12-09T22:26:46.543Z,0.28
2022-12-09T22:27:48.432Z,0.29
2022-12-09T22:28:51.392Z,0.29
2022-12-09T22:29:53.400Z,0.30
2022-12-09T22:30:55.379Z,0.28
2022-12-09T22:31:57.345Z,0.27
2022-12-09T22:32:59.200Z,0.28
2022-12-09T22:35:15.232Z,0.39
2022-12-09T22:36:20.121Z,0.26
2022-12-09T22:37:43.030Z,0.27
2022-12-09T22:38:27.034Z,0.27
2022-12-09T22:39:28.901Z,0.30
2022-12-09T22:40:30.979Z,0.29
2022-12-09T22:41:33.838Z,0.34
2022-12-09T22:42:35.728Z,0.35
2022-12-09T22:43:38.930Z,0.32
2022-12-09T22:44:40.960Z,0.37
2022-12-09T22:45:42.874Z,0.34
2022-12-09T22:46:45.825Z,0.31
2022-12-09T22:47:47.718Z,0.34
2022-12-09T22:48:49.712Z,0.38
2022-12-09T22:49:51.661Z,0.36
2022-12-09T22:50:54.246Z,0.41
2022-12-09T22:52:00.433Z,0.42
2022-12-09T22:53:00.175Z,0.38
2022-12-09T22:54:05.529Z,0.37
2022-12-09T22:55:08.639Z,0.39
2022-12-09T22:56:12.148Z,0.42
2022-12-09T22:57:14.020Z,0.38
2022-12-09T22:58:15.996Z,0.40
2022-12-09T22:59:19.158Z,0.46
2022-12-09T23:00:21.289Z,0.42
2022-12-09T23:01:26.346Z,0.43
2022-12-09T23:02:28.318Z,0.39
2022-12-09T23:03:30.317Z,0.41
2022-12-09T23:04:32.279Z,0.44
2022-12-09T23:05:37.203Z,0.43
2022-12-09T23:06:40.022Z,0.42
2022-12-09T23:07:42.175Z,0.43
2022-12-09T23:08:44.744Z,0.41
2022-12-09T23:09:46.608Z,0.44
2022-12-09T23:10:48.664Z,0.43
2022-12-09T23:11:52.417Z,0.46
2022-12-09T23:12:54.292Z,0.48
2022-12-09T23:13:58.295Z,0.48
2022-12-09T23:15:00.415Z,0.45
2022-12-09T23:16:05.599Z,0.50
2022-12-09T23:17:07.660Z,0.45
2022-12-09T23:18:09.510Z,0.47
2022-12-09T23:19:13.046Z,0.49
2022-12-09T23:20:15.777Z,0.51
2022-12-09T23:21:23.942Z,0.52
2022-12-09T23:22:26.685Z,0.53
2022-12-09T23:23:29.521Z,0.52
2022-12-09T23:24:32.109Z,0.47
2022-12-09T23:25:33.977Z,0.52
2022-12-09T23:26:38.216Z,0.52
2022-12-09T23:27:40.133Z,0.48
2022-12-09T23:28:44.698Z,0.48
2022-12-09T23:29:47.421Z,0.49
2022-12-09T23:30:49.448Z,0.49
2022-12-09T23:31:52.083Z,0.47
2022-12-09T23:32:54.044Z,0.50
2022-12-09T23:33:56.347Z,0.48
2022-12-09T23:35:01.007Z,0.50
2022-12-09T23:36:09.006Z,0.48
2022-12-09T23:37:10.896Z,0.46
2022-12-09T23:38:13.670Z,0.49
2022-12-09T23:39:17.246Z,0.49
2022-12-09T23:40:19.459Z,0.51
2022-12-09T23:41:23.106Z,0.57
2022-12-09T23:42:25.040Z,0.57
2022-12-09T23:43:33.206Z,0.53
2022-12-09T23:44:36.919Z,0.58
2022-12-09T23:45:38.818Z,0.57
2022-12-09T23:46:41.997Z,0.56
2022-12-09T23:47:44.250Z,0.57
2022-12-09T23:48:48.294Z,0.56
2022-12-09T23:49:50.254Z,0.57
2022-12-09T23:50:52.341Z,0.56
2022-12-09T23:51:54.189Z,0.61
2022-12-09T23:52:56.041Z,0.59
2022-12-09T23:54:01.587Z,0.56
2022-12-09T23:55:04.847Z,0.60
2022-12-09T23:56:13.416Z,0.57
2022-12-09T23:57:15.302Z,0.57
2022-12-09T23:58:17.154Z,0.58
2022-12-09T23:59:21.113Z,0.61
